sensor_id;sensor_type;location;lat;lon;timestamp;temperature;humidity
63976;DHT22;50167;47.958;21.780;2023-07-22T00:01:54;24.97;62.87
63976;DHT22;50167;47.958;21.780;2023-07-22T00:04:20;24.97;62.77
63976;DHT22;50167;47.958;21.780;2023-07-22T00:06:47;24.98;62.57
63976;DHT22;50167;47.958;21.780;2023-07-22T00:09:13;25.01;62.20
63976;DHT22;50167;47.958;21.780;2023-07-22T00:11:39;25.00;62.13
63976;DHT22;50167;47.958;21.780;2023-07-22T00:14:06;25.01;62.31
63976;DHT22;50167;47.958;21.780;2023-07-22T00:16:32;25.01;62.25
63976;DHT22;50167;47.958;21.780;2023-07-22T00:18:59;24.98;62.29
63976;DHT22;50167;47.958;21.780;2023-07-22T00:21:25;24.95;62.59
63976;DHT22;50167;47.958;21.780;2023-07-22T00:23:51;24.97;62.67
63976;DHT22;50167;47.958;21.780;2023-07-22T00:26:18;25.00;62.76
63976;DHT22;50167;47.958;21.780;2023-07-22T00:28:44;25.07;62.54
63976;DHT22;50167;47.958;21.780;2023-07-22T00:31:10;25.12;62.18
63976;DHT22;50167;47.958;21.780;2023-07-22T00:33:37;25.15;62.25
63976;DHT22;50167;47.958;21.780;2023-07-22T00:36:04;25.22;61.98
63976;DHT22;50167;47.958;21.780;2023-07-22T00:38:30;25.22;61.97
63976;DHT22;50167;47.958;21.780;2023-07-22T00:40:57;25.25;61.90
63976;DHT22;50167;47.958;21.780;2023-07-22T00:43:23;25.30;61.77
63976;DHT22;50167;47.958;21.780;2023-07-22T00:53:47;25.14;62.15
63976;DHT22;50167;47.958;21.780;2023-07-22T00:56:14;25.15;61.99
63976;DHT22;50167;47.958;21.780;2023-07-22T00:58:40;25.19;62.09
63976;DHT22;50167;47.958;21.780;2023-07-22T01:01:07;25.25;61.86
63976;DHT22;50167;47.958;21.780;2023-07-22T01:03:33;25.29;61.60
63976;DHT22;50167;47.958;21.780;2023-07-22T01:05:59;25.21;61.79
63976;DHT22;50167;47.958;21.780;2023-07-22T01:08:26;25.19;62.26
63976;DHT22;50167;47.958;21.780;2023-07-22T01:10:53;25.22;62.11
63976;DHT22;50167;47.958;21.780;2023-07-22T01:13:20;25.25;61.73
63976;DHT22;50167;47.958;21.780;2023-07-22T01:15:46;25.23;61.36
63976;DHT22;50167;47.958;21.780;2023-07-22T01:18:14;25.19;61.60
63976;DHT22;50167;47.958;21.780;2023-07-22T01:20:41;25.12;61.78
63976;DHT22;50167;47.958;21.780;2023-07-22T01:23:09;25.09;61.90
63976;DHT22;50167;47.958;21.780;2023-07-22T01:25:36;25.14;61.96
63976;DHT22;50167;47.958;21.780;2023-07-22T01:28:02;25.22;62.04
63976;DHT22;50167;47.958;21.780;2023-07-22T01:30:28;25.30;61.82
63976;DHT22;50167;47.958;21.780;2023-07-22T01:32:55;25.30;61.43
63976;DHT22;50167;47.958;21.780;2023-07-22T01:35:21;25.25;61.77
63976;DHT22;50167;47.958;21.780;2023-07-22T01:37:47;25.19;61.60
63976;DHT22;50167;47.958;21.780;2023-07-22T01:40:14;25.12;61.60
63976;DHT22;50167;47.958;21.780;2023-07-22T01:42:41;25.08;61.66
63976;DHT22;50167;47.958;21.780;2023-07-22T01:45:09;25.04;61.86
63976;DHT22;50167;47.958;21.780;2023-07-22T01:47:38;25.09;62.05
63976;DHT22;50167;47.958;21.780;2023-07-22T01:50:07;25.14;61.60
63976;DHT22;50167;47.958;21.780;2023-07-22T01:52:33;25.15;61.40
63976;DHT22;50167;47.958;21.780;2023-07-22T01:54:59;25.17;61.13
63976;DHT22;50167;47.958;21.780;2023-07-22T01:57:25;25.17;61.23
63976;DHT22;50167;47.958;21.780;2023-07-22T01:59:52;25.19;61.39
63976;DHT22;50167;47.958;21.780;2023-07-22T02:02:19;25.22;61.30
63976;DHT22;50167;47.958;21.780;2023-07-22T02:04:46;25.26;61.50
63976;DHT22;50167;47.958;21.780;2023-07-22T02:07:12;25.33;61.66
63976;DHT22;50167;47.958;21.780;2023-07-22T02:09:38;25.39;61.35
63976;DHT22;50167;47.958;21.780;2023-07-22T02:12:05;25.45;61.28
63976;DHT22;50167;47.958;21.780;2023-07-22T02:14:33;25.48;61.14
63976;DHT22;50167;47.958;21.780;2023-07-22T02:16:59;25.38;61.16
63976;DHT22;50167;47.958;21.780;2023-07-22T02:19:25;25.36;61.37
63976;DHT22;50167;47.958;21.780;2023-07-22T02:21:52;25.32;61.42
63976;DHT22;50167;47.958;21.780;2023-07-22T02:24:19;25.35;61.31
63976;DHT22;50167;47.958;21.780;2023-07-22T02:26:46;25.38;60.88
63976;DHT22;50167;47.958;21.780;2023-07-22T02:29:12;25.30;60.79
63976;DHT22;50167;47.958;21.780;2023-07-22T02:31:38;25.22;60.98
63976;DHT22;50167;47.958;21.780;2023-07-22T02:34:05;25.15;61.34
63976;DHT22;50167;47.958;21.780;2023-07-22T02:36:32;25.18;61.46
63976;DHT22;50167;47.958;21.780;2023-07-22T02:38:58;25.28;61.49
63976;DHT22;50167;47.958;21.780;2023-07-22T02:41:24;25.38;61.50
63976;DHT22;50167;47.958;21.780;2023-07-22T02:43:50;25.48;61.19
63976;DHT22;50167;47.958;21.780;2023-07-22T02:46:16;25.53;60.53
63976;DHT22;50167;47.958;21.780;2023-07-22T02:48:44;25.57;60.32
63976;DHT22;50167;47.958;21.780;2023-07-22T02:51:10;25.53;60.51
63976;DHT22;50167;47.958;21.780;2023-07-22T02:53:37;25.53;60.81
63976;DHT22;50167;47.958;21.780;2023-07-22T02:56:05;25.59;60.45
63976;DHT22;50167;47.958;21.780;2023-07-22T02:58:34;25.67;60.37
63976;DHT22;50167;47.958;21.780;2023-07-22T03:01:04;25.77;59.82
63976;DHT22;50167;47.958;21.780;2023-07-22T03:03:31;25.83;59.40
63976;DHT22;50167;47.958;21.780;2023-07-22T03:06:01;25.28;59.45
63976;DHT22;50167;47.958;21.780;2023-07-22T03:08:28;24.17;61.99
63976;DHT22;50167;47.958;21.780;2023-07-22T03:10:55;23.23;64.43
63976;DHT22;50167;47.958;21.780;2023-07-22T03:13:21;23.33;66.49
63976;DHT22;50167;47.958;21.780;2023-07-22T03:15:47;23.87;65.46
63976;DHT22;50167;47.958;21.780;2023-07-22T03:18:14;24.17;64.48
63976;DHT22;50167;47.958;21.780;2023-07-22T03:20:40;24.32;63.90
63976;DHT22;50167;47.958;21.780;2023-07-22T03:23:07;24.40;63.57
63976;DHT22;50167;47.958;21.780;2023-07-22T03:25:35;24.46;63.43
63976;DHT22;50167;47.958;21.780;2023-07-22T03:28:06;24.50;63.31
63976;DHT22;50167;47.958;21.780;2023-07-22T03:30:33;24.56;63.07
63976;DHT22;50167;47.958;21.780;2023-07-22T03:33:00;24.59;63.02
63976;DHT22;50167;47.958;21.780;2023-07-22T03:35:27;24.63;62.97
63976;DHT22;50167;47.958;21.780;2023-07-22T03:37:54;24.64;62.70
63976;DHT22;50167;47.958;21.780;2023-07-22T03:40:20;24.68;62.99
63976;DHT22;50167;47.958;21.780;2023-07-22T03:42:50;24.74;62.67
63976;DHT22;50167;47.958;21.780;2023-07-22T03:45:18;24.71;62.53
63976;DHT22;50167;47.958;21.780;2023-07-22T03:47:56;24.68;62.71
63976;DHT22;50167;47.958;21.780;2023-07-22T03:50:22;24.68;62.87
63976;DHT22;50167;47.958;21.780;2023-07-22T03:52:48;24.68;62.82
63976;DHT22;50167;47.958;21.780;2023-07-22T03:55:14;24.71;62.80
63976;DHT22;50167;47.958;21.780;2023-07-22T03:57:41;24.74;62.99
63976;DHT22;50167;47.958;21.780;2023-07-22T04:00:08;24.77;62.74
63976;DHT22;50167;47.958;21.780;2023-07-22T04:02:37;24.73;62.88
63976;DHT22;50167;47.958;21.780;2023-07-22T04:05:04;24.74;63.00
63976;DHT22;50167;47.958;21.780;2023-07-22T04:07:30;24.82;62.94
63976;DHT22;50167;47.958;21.780;2023-07-22T04:09:57;24.92;62.77
63976;DHT22;50167;47.958;21.780;2023-07-22T04:12:23;24.97;62.56
63976;DHT22;50167;47.958;21.780;2023-07-22T04:14:49;25.05;62.48
63976;DHT22;50167;47.958;21.780;2023-07-22T04:17:16;25.11;62.20
63976;DHT22;50167;47.958;21.780;2023-07-22T04:19:42;25.19;62.13
63976;DHT22;50167;47.958;21.780;2023-07-22T04:22:09;25.28;61.80
63976;DHT22;50167;47.958;21.780;2023-07-22T04:24:35;25.33;61.64
63976;DHT22;50167;47.958;21.780;2023-07-22T04:27:03;25.38;61.80
63976;DHT22;50167;47.958;21.780;2023-07-22T04:29:29;25.48;61.50
63976;DHT22;50167;47.958;21.780;2023-07-22T04:31:59;25.53;61.29
63976;DHT22;50167;47.958;21.780;2023-07-22T04:34:31;25.59;61.42
63976;DHT22;50167;47.958;21.780;2023-07-22T04:36:57;25.59;61.34
63976;DHT22;50167;47.958;21.780;2023-07-22T04:39:24;25.57;61.32
63976;DHT22;50167;47.958;21.780;2023-07-22T04:41:51;25.60;61.12
63976;DHT22;50167;47.958;21.780;2023-07-22T04:44:18;25.62;61.02
63976;DHT22;50167;47.958;21.780;2023-07-22T04:46:45;25.62;61.19
63976;DHT22;50167;47.958;21.780;2023-07-22T04:49:12;25.66;60.98
63976;DHT22;50167;47.958;21.780;2023-07-22T04:51:39;25.70;60.75
63976;DHT22;50167;47.958;21.780;2023-07-22T04:54:05;25.73;60.76
63976;DHT22;50167;47.958;21.780;2023-07-22T04:56:31;25.75;60.91
63976;DHT22;50167;47.958;21.780;2023-07-22T04:58:58;25.76;60.80
63976;DHT22;50167;47.958;21.780;2023-07-22T05:01:24;25.76;60.73
63976;DHT22;50167;47.958;21.780;2023-07-22T05:03:50;25.81;60.56
63976;DHT22;50167;47.958;21.780;2023-07-22T05:06:17;25.81;60.72
63976;DHT22;50167;47.958;21.780;2023-07-22T05:08:43;25.84;61.03
63976;DHT22;50167;47.958;21.780;2023-07-22T05:11:09;25.94;60.58
63976;DHT22;50167;47.958;21.780;2023-07-22T05:13:35;26.00;60.08
63976;DHT22;50167;47.958;21.780;2023-07-22T05:16:01;25.95;60.03
63976;DHT22;50167;47.958;21.780;2023-07-22T05:18:28;25.83;60.72
63976;DHT22;50167;47.958;21.780;2023-07-22T05:20:54;25.84;60.70
63976;DHT22;50167;47.958;21.780;2023-07-22T05:23:20;25.86;60.49
63976;DHT22;50167;47.958;21.780;2023-07-22T05:25:53;25.86;60.47
63976;DHT22;50167;47.958;21.780;2023-07-22T05:28:20;25.90;60.63
63976;DHT22;50167;47.958;21.780;2023-07-22T05:30:46;25.95;60.82
63976;DHT22;50167;47.958;21.780;2023-07-22T05:33:12;26.11;60.57
63976;DHT22;50167;47.958;21.780;2023-07-22T05:35:38;26.22;60.14
63976;DHT22;50167;47.958;21.780;2023-07-22T05:38:04;26.31;59.68
63976;DHT22;50167;47.958;21.780;2023-07-22T05:40:32;25.91;59.54
63976;DHT22;50167;47.958;21.780;2023-07-22T05:42:58;25.11;61.26
63976;DHT22;50167;47.958;21.780;2023-07-22T05:45:24;24.42;63.31
63976;DHT22;50167;47.958;21.780;2023-07-22T05:47:50;24.60;64.32
63976;DHT22;50167;47.958;21.780;2023-07-22T05:50:17;25.40;62.80
63976;DHT22;50167;47.958;21.780;2023-07-22T05:52:43;25.90;60.67
63976;DHT22;50167;47.958;21.780;2023-07-22T05:55:09;26.17;59.96
63976;DHT22;50167;47.958;21.780;2023-07-22T05:57:36;26.09;59.45
63976;DHT22;50167;47.958;21.780;2023-07-22T06:00:02;25.38;60.88
63976;DHT22;50167;47.958;21.780;2023-07-22T06:02:28;24.63;63.01
63976;DHT22;50167;47.958;21.780;2023-07-22T06:04:55;24.75;63.68
63976;DHT22;50167;47.958;21.780;2023-07-22T06:07:21;25.43;61.95
63976;DHT22;50167;47.958;21.780;2023-07-22T06:09:47;25.87;61.20
63976;DHT22;50167;47.958;21.780;2023-07-22T06:12:13;26.18;60.21
63976;DHT22;50167;47.958;21.780;2023-07-22T06:14:40;26.41;60.05
63976;DHT22;50167;47.958;21.780;2023-07-22T06:17:06;26.60;58.23
63976;DHT22;50167;47.958;21.780;2023-07-22T06:19:33;26.18;58.55
63976;DHT22;50167;47.958;21.780;2023-07-22T06:21:59;25.32;60.74
63976;DHT22;50167;47.958;21.780;2023-07-22T06:24:25;24.70;62.97
63976;DHT22;50167;47.958;21.780;2023-07-22T06:26:51;24.90;63.65
63976;DHT22;50167;47.958;21.780;2023-07-22T06:29:18;25.76;61.08
63976;DHT22;50167;47.958;21.780;2023-07-22T06:31:44;26.24;59.28
63976;DHT22;50167;47.958;21.780;2023-07-22T06:34:10;26.04;59.05
63976;DHT22;50167;47.958;21.780;2023-07-22T06:36:36;25.29;60.91
63976;DHT22;50167;47.958;21.780;2023-07-22T06:39:03;24.71;62.67
63976;DHT22;50167;47.958;21.780;2023-07-22T06:41:29;25.05;63.20
63976;DHT22;50167;47.958;21.780;2023-07-22T06:43:55;25.84;61.12
63976;DHT22;50167;47.958;21.780;2023-07-22T06:46:22;26.41;59.78
63976;DHT22;50167;47.958;21.780;2023-07-22T06:48:48;26.78;58.68
63976;DHT22;50167;47.958;21.780;2023-07-22T06:51:14;26.53;58.51
63976;DHT22;50167;47.958;21.780;2023-07-22T06:53:40;25.88;59.91
63976;DHT22;50167;47.958;21.780;2023-07-22T06:56:17;25.40;60.87
63976;DHT22;50167;47.958;21.780;2023-07-22T06:58:43;25.01;61.91
63976;DHT22;50167;47.958;21.780;2023-07-22T07:01:09;24.75;63.54
63976;DHT22;50167;47.958;21.780;2023-07-22T07:03:35;25.33;62.59
63976;DHT22;50167;47.958;21.780;2023-07-22T07:06:01;26.28;59.11
63976;DHT22;50167;47.958;21.780;2023-07-22T07:08:27;26.35;58.49
63976;DHT22;50167;47.958;21.780;2023-07-22T07:10:54;25.84;59.65
63976;DHT22;50167;47.958;21.780;2023-07-22T07:13:20;25.46;60.95
63976;DHT22;50167;47.958;21.780;2023-07-22T07:15:48;25.14;61.88
63976;DHT22;50167;47.958;21.780;2023-07-22T07:18:17;24.95;62.33
63976;DHT22;50167;47.958;21.780;2023-07-22T07:20:44;25.35;62.34
63976;DHT22;50167;47.958;21.780;2023-07-22T07:23:10;26.34;59.73
63976;DHT22;50167;47.958;21.780;2023-07-22T07:25:37;26.78;57.91
63976;DHT22;50167;47.958;21.780;2023-07-22T07:28:04;26.42;59.09
63976;DHT22;50167;47.958;21.780;2023-07-22T07:30:31;26.03;60.23
63976;DHT22;50167;47.958;21.780;2023-07-22T07:32:58;25.76;60.73
63976;DHT22;50167;47.958;21.780;2023-07-22T07:35:24;25.57;61.88
63976;DHT22;50167;47.958;21.780;2023-07-22T07:37:50;25.46;61.37
63976;DHT22;50167;47.958;21.780;2023-07-22T07:40:17;25.40;62.58
63976;DHT22;50167;47.958;21.780;2023-07-22T07:42:43;26.04;61.82
63976;DHT22;50167;47.958;21.780;2023-07-22T07:45:10;27.15;58.52
63976;DHT22;50167;47.958;21.780;2023-07-22T07:47:36;27.20;56.82
63976;DHT22;50167;47.958;21.780;2023-07-22T07:50:02;26.67;58.42
63976;DHT22;50167;47.958;21.780;2023-07-22T07:52:29;26.31;58.23
63976;DHT22;50167;47.958;21.780;2023-07-22T07:54:55;26.07;59.71
63976;DHT22;50167;47.958;21.780;2023-07-22T07:57:21;25.90;59.97
63976;DHT22;50167;47.958;21.780;2023-07-22T07:59:47;25.84;59.77
63976;DHT22;50167;47.958;21.780;2023-07-22T08:02:13;25.77;60.29
63976;DHT22;50167;47.958;21.780;2023-07-22T08:04:40;25.69;60.88
63976;DHT22;50167;47.958;21.780;2023-07-22T08:07:07;25.72;60.65
63976;DHT22;50167;47.958;21.780;2023-07-22T08:09:33;25.76;61.08
63976;DHT22;50167;47.958;21.780;2023-07-22T08:12:01;25.84;61.37
63976;DHT22;50167;47.958;21.780;2023-07-22T08:14:28;25.95;60.40
63976;DHT22;50167;47.958;21.780;2023-07-22T08:16:54;25.97;58.92
63976;DHT22;50167;47.958;21.780;2023-07-22T08:19:20;25.87;59.30
63976;DHT22;50167;47.958;21.780;2023-07-22T08:21:47;25.83;60.55
63976;DHT22;50167;47.958;21.780;2023-07-22T08:24:13;25.87;61.50
63976;DHT22;50167;47.958;21.780;2023-07-22T08:26:40;25.97;60.87
63976;DHT22;50167;47.958;21.780;2023-07-22T08:29:06;26.15;60.94
63976;DHT22;50167;47.958;21.780;2023-07-22T08:31:32;26.28;60.37
63976;DHT22;50167;47.958;21.780;2023-07-22T08:33:59;26.36;59.53
63976;DHT22;50167;47.958;21.780;2023-07-22T08:36:25;26.36;59.77
63976;DHT22;50167;47.958;21.780;2023-07-22T08:38:51;26.52;58.88
63976;DHT22;50167;47.958;21.780;2023-07-22T08:41:17;26.66;58.26
63976;DHT22;50167;47.958;21.780;2023-07-22T08:43:46;26.76;58.51
63976;DHT22;50167;47.958;21.780;2023-07-22T08:46:13;26.78;58.41
63976;DHT22;50167;47.958;21.780;2023-07-22T08:48:42;26.89;56.98
63976;DHT22;50167;47.958;21.780;2023-07-22T08:51:18;26.85;57.22
63976;DHT22;50167;47.958;21.780;2023-07-22T08:53:47;26.86;58.53
63976;DHT22;50167;47.958;21.780;2023-07-22T08:56:13;26.97;57.62
63976;DHT22;50167;47.958;21.780;2023-07-22T08:58:42;26.91;58.06
63976;DHT22;50167;47.958;21.780;2023-07-22T09:01:09;26.76;57.73
63976;DHT22;50167;47.958;21.780;2023-07-22T09:03:35;26.73;57.39
63976;DHT22;50167;47.958;21.780;2023-07-22T09:06:04;26.78;57.11
63976;DHT22;50167;47.958;21.780;2023-07-22T09:08:31;26.87;56.59
63976;DHT22;50167;47.958;21.780;2023-07-22T09:10:57;26.99;56.41
63976;DHT22;50167;47.958;21.780;2023-07-22T09:13:26;27.14;57.09
63976;DHT22;50167;47.958;21.780;2023-07-22T09:15:53;27.32;56.62
63976;DHT22;50167;47.958;21.780;2023-07-22T09:18:19;27.30;55.52
63976;DHT22;50167;47.958;21.780;2023-07-22T09:20:45;27.18;55.33
63976;DHT22;50167;47.958;21.780;2023-07-22T09:23:12;27.22;55.64
63976;DHT22;50167;47.958;21.780;2023-07-22T09:25:40;27.44;56.21
63976;DHT22;50167;47.958;21.780;2023-07-22T09:28:06;27.64;55.52
63976;DHT22;50167;47.958;21.780;2023-07-22T09:30:38;27.68;54.53
63976;DHT22;50167;47.958;21.780;2023-07-22T09:33:19;27.54;54.85
63976;DHT22;50167;47.958;21.780;2023-07-22T09:35:47;27.48;55.49
63976;DHT22;50167;47.958;21.780;2023-07-22T09:38:14;27.64;54.53
63976;DHT22;50167;47.958;21.780;2023-07-22T09:40:43;27.80;53.92
63976;DHT22;50167;47.958;21.780;2023-07-22T09:43:11;27.90;54.48
63976;DHT22;50167;47.958;21.780;2023-07-22T09:45:40;28.03;54.14
63976;DHT22;50167;47.958;21.780;2023-07-22T09:48:09;28.02;53.56
63976;DHT22;50167;47.958;21.780;2023-07-22T09:50:36;28.03;54.15
63976;DHT22;50167;47.958;21.780;2023-07-22T09:53:03;28.16;53.98
63976;DHT22;50167;47.958;21.780;2023-07-22T09:55:31;28.33;53.27
63976;DHT22;50167;47.958;21.780;2023-07-22T09:58:02;28.40;53.45
63976;DHT22;50167;47.958;21.780;2023-07-22T10:00:31;28.41;53.06
63976;DHT22;50167;47.958;21.780;2023-07-22T10:03:01;28.44;52.06
63976;DHT22;50167;47.958;21.780;2023-07-22T10:05:28;28.51;51.88
63976;DHT22;50167;47.958;21.780;2023-07-22T10:07:58;28.62;52.59
63976;DHT22;50167;47.958;21.780;2023-07-22T10:10:35;28.71;51.09
63976;DHT22;50167;47.958;21.780;2023-07-22T10:13:03;28.79;51.59
63976;DHT22;50167;47.958;21.780;2023-07-22T10:15:32;28.85;52.06
63976;DHT22;50167;47.958;21.780;2023-07-22T10:18:03;28.93;51.14
63976;DHT22;50167;47.958;21.780;2023-07-22T10:20:31;29.02;50.90
63976;DHT22;50167;47.958;21.780;2023-07-22T10:22:59;29.10;51.29
63976;DHT22;50167;47.958;21.780;2023-07-22T10:25:29;29.20;51.50
63976;DHT22;50167;47.958;21.780;2023-07-22T10:27:56;29.17;51.21
63976;DHT22;50167;47.958;21.780;2023-07-22T10:30:22;29.19;51.27
63976;DHT22;50167;47.958;21.780;2023-07-22T10:32:53;29.19;50.86
63976;DHT22;50167;47.958;21.780;2023-07-22T10:38:14;29.16;50.76
63976;DHT22;50167;47.958;21.780;2023-07-22T10:40:55;29.14;50.26
63976;DHT22;50167;47.958;21.780;2023-07-22T10:43:30;29.06;51.34
63976;DHT22;50167;47.958;21.780;2023-07-22T10:46:04;29.00;51.29
63976;DHT22;50167;47.958;21.780;2023-07-22T10:48:28;29.07;52.17
63976;DHT22;50167;47.958;21.780;2023-07-22T10:51:09;29.20;51.36
63976;DHT22;50167;47.958;21.780;2023-07-22T10:53:42;29.37;50.48
63976;DHT22;50167;47.958;21.780;2023-07-22T10:56:20;29.44;50.68
63976;DHT22;50167;47.958;21.780;2023-07-22T11:06:53;29.32;50.86
63976;DHT22;50167;47.958;21.780;2023-07-22T11:09:33;29.17;51.05
63976;DHT22;50167;47.958;21.780;2023-07-22T11:12:12;28.96;51.94
63976;DHT22;50167;47.958;21.780;2023-07-22T11:14:46;28.75;52.01
63976;DHT22;50167;47.958;21.780;2023-07-22T11:17:13;28.58;52.47
63976;DHT22;50167;47.958;21.780;2023-07-22T11:19:40;28.50;53.02
63976;DHT22;50167;47.958;21.780;2023-07-22T11:22:07;28.54;52.52
63976;DHT22;50167;47.958;21.780;2023-07-22T11:24:34;28.64;53.83
63976;DHT22;50167;47.958;21.780;2023-07-22T11:27:06;28.79;52.29
63976;DHT22;50167;47.958;21.780;2023-07-22T11:29:35;28.89;52.86
63976;DHT22;50167;47.958;21.780;2023-07-22T11:32:02;28.95;52.08
63976;DHT22;50167;47.958;21.780;2023-07-22T11:34:29;28.85;51.89
63976;DHT22;50167;47.958;21.780;2023-07-22T11:36:56;28.70;52.34
63976;DHT22;50167;47.958;21.780;2023-07-22T11:39:25;28.60;50.59
63976;DHT22;50167;47.958;21.780;2023-07-22T11:41:52;28.52;51.00
63976;DHT22;50167;47.958;21.780;2023-07-22T11:44:21;28.54;51.38
63976;DHT22;50167;47.958;21.780;2023-07-22T11:46:53;28.67;52.25
63976;DHT22;50167;47.958;21.780;2023-07-22T11:49:36;28.67;52.26
63976;DHT22;50167;47.958;21.780;2023-07-22T11:52:06;28.64;52.45
63976;DHT22;50167;47.958;21.780;2023-07-22T11:54:38;28.62;52.56
63976;DHT22;50167;47.958;21.780;2023-07-22T11:57:16;28.54;52.79
63976;DHT22;50167;47.958;21.780;2023-07-22T11:59:48;28.52;54.33
63976;DHT22;50167;47.958;21.780;2023-07-22T12:02:17;28.74;53.26
63976;DHT22;50167;47.958;21.780;2023-07-22T12:04:59;28.83;52.43
63976;DHT22;50167;47.958;21.780;2023-07-22T12:07:32;28.79;52.46
63976;DHT22;50167;47.958;21.780;2023-07-22T12:09:59;28.81;53.01
63976;DHT22;50167;47.958;21.780;2023-07-22T12:12:41;28.88;52.80
63976;DHT22;50167;47.958;21.780;2023-07-22T12:15:22;28.92;52.10
63976;DHT22;50167;47.958;21.780;2023-07-22T12:17:59;29.00;52.34
63976;DHT22;50167;47.958;21.780;2023-07-22T12:20:33;29.20;50.99
63976;DHT22;50167;47.958;21.780;2023-07-22T12:22:59;29.16;51.34
63976;DHT22;50167;47.958;21.780;2023-07-22T12:25:26;29.22;51.80
63976;DHT22;50167;47.958;21.780;2023-07-22T12:27:53;29.33;51.10
63976;DHT22;50167;47.958;21.780;2023-07-22T12:30:20;29.41;51.36
63976;DHT22;50167;47.958;21.780;2023-07-22T12:32:47;29.44;51.13
63976;DHT22;50167;47.958;21.780;2023-07-22T12:35:13;29.51;50.61
63976;DHT22;50167;47.958;21.780;2023-07-22T12:37:40;29.63;50.01
63976;DHT22;50167;47.958;21.780;2023-07-22T12:40:07;29.81;50.59
63976;DHT22;50167;47.958;21.780;2023-07-22T12:42:36;29.92;48.48
63976;DHT22;50167;47.958;21.780;2023-07-22T12:45:06;30.02;47.92
63976;DHT22;50167;47.958;21.780;2023-07-22T12:47:33;29.95;47.89
63976;DHT22;50167;47.958;21.780;2023-07-22T12:49:59;29.78;48.19
63976;DHT22;50167;47.958;21.780;2023-07-22T12:52:26;29.88;48.79
63976;DHT22;50167;47.958;21.780;2023-07-22T12:54:52;30.02;48.42
63976;DHT22;50167;47.958;21.780;2023-07-22T12:57:18;30.18;48.71
63976;DHT22;50167;47.958;21.780;2023-07-22T12:59:44;30.67;46.75
63976;DHT22;50167;47.958;21.780;2023-07-22T13:02:10;31.36;44.11
63976;DHT22;50167;47.958;21.780;2023-07-22T13:04:37;32.15;42.15
63976;DHT22;50167;47.958;21.780;2023-07-22T13:07:03;32.76;41.37
63976;DHT22;50167;47.958;21.780;2023-07-22T13:09:29;32.69;42.00
63976;DHT22;50167;47.958;21.780;2023-07-22T13:11:55;32.55;42.62
63976;DHT22;50167;47.958;21.780;2023-07-22T13:14:21;32.97;42.36
63976;DHT22;50167;47.958;21.780;2023-07-22T13:16:48;33.48;41.69
63976;DHT22;50167;47.958;21.780;2023-07-22T13:19:14;34.08;41.68
63976;DHT22;50167;47.958;21.780;2023-07-22T13:21:40;34.77;38.65
63976;DHT22;50167;47.958;21.780;2023-07-22T13:24:06;35.02;38.31
63976;DHT22;50167;47.958;21.780;2023-07-22T13:26:34;35.01;37.62
63976;DHT22;50167;47.958;21.780;2023-07-22T13:29:01;34.70;38.34
63976;DHT22;50167;47.958;21.780;2023-07-22T13:31:28;34.83;38.40
63976;DHT22;50167;47.958;21.780;2023-07-22T13:33:54;35.24;37.57
63976;DHT22;50167;47.958;21.780;2023-07-22T13:36:20;35.70;37.57
63976;DHT22;50167;47.958;21.780;2023-07-22T13:38:47;36.10;35.72
63976;DHT22;50167;47.958;21.780;2023-07-22T13:41:13;36.49;34.55
63976;DHT22;50167;47.958;21.780;2023-07-22T13:43:39;36.75;34.52
63976;DHT22;50167;47.958;21.780;2023-07-22T13:46:05;37.09;33.81
63976;DHT22;50167;47.958;21.780;2023-07-22T13:48:32;37.57;34.16
63976;DHT22;50167;47.958;21.780;2023-07-22T13:50:58;37.95;32.32
63976;DHT22;50167;47.958;21.780;2023-07-22T13:53:24;38.19;31.98
63976;DHT22;50167;47.958;21.780;2023-07-22T13:55:51;38.53;30.53
63976;DHT22;50167;47.958;21.780;2023-07-22T13:58:17;38.78;29.57
63976;DHT22;50167;47.958;21.780;2023-07-22T14:00:43;38.39;30.56
63976;DHT22;50167;47.958;21.780;2023-07-22T14:03:09;38.06;30.37
63976;DHT22;50167;47.958;21.780;2023-07-22T14:05:35;37.53;30.97
63976;DHT22;50167;47.958;21.780;2023-07-22T14:08:02;37.54;31.55
63976;DHT22;50167;47.958;21.780;2023-07-22T14:10:28;37.63;31.17
63976;DHT22;50167;47.958;21.780;2023-07-22T14:12:55;36.99;30.74
63976;DHT22;50167;47.958;21.780;2023-07-22T14:15:21;36.30;31.86
63976;DHT22;50167;47.958;21.780;2023-07-22T14:17:47;35.39;33.46
63976;DHT22;50167;47.958;21.780;2023-07-22T14:20:13;34.87;34.62
63976;DHT22;50167;47.958;21.780;2023-07-22T14:22:42;34.58;35.70
63976;DHT22;50167;47.958;21.780;2023-07-22T14:25:08;34.70;35.76
63976;DHT22;50167;47.958;21.780;2023-07-22T14:27:37;34.83;36.08
63976;DHT22;50167;47.958;21.780;2023-07-22T14:30:04;34.88;35.72
63976;DHT22;50167;47.958;21.780;2023-07-22T14:32:31;34.95;36.22
63976;DHT22;50167;47.958;21.780;2023-07-22T14:34:57;35.45;36.04
63976;DHT22;50167;47.958;21.780;2023-07-22T14:37:23;36.07;35.42
63976;DHT22;50167;47.958;21.780;2023-07-22T14:39:50;36.69;34.00
63976;DHT22;50167;47.958;21.780;2023-07-22T14:42:16;37.16;33.05
63976;DHT22;50167;47.958;21.780;2023-07-22T14:44:42;37.26;33.19
63976;DHT22;50167;47.958;21.780;2023-07-22T14:47:09;37.51;32.85
63976;DHT22;50167;47.958;21.780;2023-07-22T14:49:35;37.75;31.93
63976;DHT22;50167;47.958;21.780;2023-07-22T14:52:01;38.15;30.79
63976;DHT22;50167;47.958;21.780;2023-07-22T14:54:28;38.49;30.75
63976;DHT22;50167;47.958;21.780;2023-07-22T14:56:54;38.77;29.23
63976;DHT22;50167;47.958;21.780;2023-07-22T14:59:20;39.02;26.24
63976;DHT22;50167;47.958;21.780;2023-07-22T15:01:46;38.97;25.66
63976;DHT22;50167;47.958;21.780;2023-07-22T15:04:13;38.84;26.08
63976;DHT22;50167;47.958;21.780;2023-07-22T15:06:39;38.81;26.24
63976;DHT22;50167;47.958;21.780;2023-07-22T15:09:05;38.74;25.89
63976;DHT22;50167;47.958;21.780;2023-07-22T15:11:36;38.64;26.53
63976;DHT22;50167;47.958;21.780;2023-07-22T15:14:04;38.43;26.96
63976;DHT22;50167;47.958;21.780;2023-07-22T15:16:31;38.35;27.23
63976;DHT22;50167;47.958;21.780;2023-07-22T15:18:58;38.26;27.25
63976;DHT22;50167;47.958;21.780;2023-07-22T15:21:25;38.25;27.69
63976;DHT22;50167;47.958;21.780;2023-07-22T15:23:51;38.25;26.85
63976;DHT22;50167;47.958;21.780;2023-07-22T15:26:18;38.33;27.30
63976;DHT22;50167;47.958;21.780;2023-07-22T15:28:44;38.47;25.89
63976;DHT22;50167;47.958;21.780;2023-07-22T15:31:10;38.46;27.14
63976;DHT22;50167;47.958;21.780;2023-07-22T15:33:36;38.43;26.75
63976;DHT22;50167;47.958;21.780;2023-07-22T15:36:03;38.36;27.08